createdAt,value
2018-05-27T04:01:49.453Z,13.30
2018-05-27T04:04:29.326Z,13.50
2018-05-27T04:07:09.158Z,13.50
2018-05-27T04:09:37.875Z,13.60
2018-05-27T04:12:06.405Z,13.60
2018-05-27T04:14:35.664Z,13.60
2018-05-27T04:17:04.521Z,13.70
2018-05-27T04:19:33.388Z,13.80
2018-05-27T04:22:03.512Z,13.80
2018-05-27T04:24:32.248Z,13.90
2018-05-27T04:27:01.061Z,14.00
2018-05-27T04:29:31.048Z,14.10
2018-05-27T04:31:59.852Z,14.10
2018-05-27T04:34:28.583Z,14.30
2018-05-27T04:36:57.316Z,14.40
2018-05-27T04:39:26.160Z,14.60
2018-05-27T04:41:54.980Z,14.80
2018-05-27T04:44:23.837Z,14.90
2018-05-27T04:46:52.668Z,14.90
2018-05-27T04:49:21.160Z,14.90
2018-05-27T04:51:49.720Z,15.00
2018-05-27T04:54:18.447Z,15.30
2018-05-27T04:56:47.192Z,15.50
2018-05-27T04:59:16.057Z,15.70
2018-05-27T05:01:45.698Z,16.00
2018-05-27T05:04:14.525Z,16.00
2018-05-27T05:06:43.360Z,16.20
2018-05-27T05:09:11.524Z,16.40
2018-05-27T05:11:40.304Z,16.50
2018-05-27T05:14:09.123Z,16.90
2018-05-27T05:16:37.634Z,16.90
2018-05-27T05:19:06.808Z,17.10
2018-05-27T05:21:35.524Z,17.30
2018-05-27T05:24:04.052Z,17.50
2018-05-27T05:26:33.311Z,17.90
2018-05-27T05:29:02.000Z,17.90
2018-05-27T05:31:30.760Z,18.20
2018-05-27T05:33:59.225Z,18.40
2018-05-27T05:36:27.704Z,18.60
2018-05-27T05:38:56.207Z,18.80
2018-05-27T05:41:24.728Z,19.00
2018-05-27T05:43:53.186Z,19.20
2018-05-27T05:46:21.691Z,19.30
2018-05-27T05:48:50.380Z,19.80
2018-05-27T05:51:18.900Z,20.20
2018-05-27T05:53:48.253Z,20.90
2018-05-27T05:56:16.821Z,20.80
2018-05-27T05:58:45.298Z,20.80
2018-05-27T06:01:13.848Z,20.90
2018-05-27T06:03:42.739Z,21.10
2018-05-27T06:06:12.028Z,21.10
2018-05-27T06:08:41.323Z,21.40
2018-05-27T06:11:09.849Z,21.40
2018-05-27T06:13:38.380Z,21.60
2018-05-27T06:16:08.309Z,21.90
2018-05-27T06:18:37.601Z,22.30
2018-05-27T06:21:06.345Z,22.30
2018-05-27T06:23:34.877Z,22.50
2018-05-27T06:26:03.411Z,22.80
2018-05-27T06:28:31.901Z,22.90
2018-05-27T06:31:01.306Z,22.90
2018-05-27T06:33:30.491Z,22.90
2018-05-27T06:35:59.798Z,22.90
2018-05-27T06:38:29.158Z,23.20
2018-05-27T06:40:59.004Z,23.70
2018-05-27T06:43:27.890Z,23.70
2018-05-27T06:45:56.817Z,23.80
2018-05-27T06:48:25.648Z,24.10
2018-05-27T06:50:54.651Z,24.60
2018-05-27T06:53:24.329Z,24.80
2018-05-27T06:55:53.227Z,24.80
2018-05-27T06:58:22.766Z,24.80
2018-05-27T07:00:52.590Z,25.10
2018-05-27T07:03:21.777Z,25.10
2018-05-27T07:06:01.380Z,25.00
2018-05-27T07:08:30.912Z,24.90
2018-05-27T07:11:00.024Z,25.00
2018-05-27T07:13:29.691Z,25.20
2018-05-27T07:15:58.948Z,25.20
2018-05-27T07:18:27.833Z,24.90
2018-05-27T07:20:57.345Z,24.90
2018-05-27T07:23:26.200Z,24.60
2018-05-27T07:25:55.942Z,24.80
2018-05-27T07:28:25.776Z,24.60
2018-05-27T07:30:55.977Z,24.60
2018-05-27T07:33:24.947Z,24.80
2018-05-27T07:35:54.251Z,24.70
2018-05-27T07:38:25.461Z,24.60
2018-05-27T07:40:54.298Z,24.60
2018-05-27T07:43:25.031Z,25.30
2018-05-27T07:45:55.165Z,25.20
2018-05-27T07:48:24.653Z,25.20
2018-05-27T07:50:54.571Z,25.40
2018-05-27T07:53:23.449Z,25.60
2018-05-27T07:55:52.184Z,26.50
2018-05-27T07:58:22.636Z,27.30
2018-05-27T08:00:52.859Z,27.80
2018-05-27T08:03:25.736Z,28.50
2018-05-27T08:05:54.512Z,28.50
2018-05-27T08:08:24.050Z,29.00
2018-05-27T08:10:52.905Z,29.90
2018-05-27T08:13:21.823Z,29.60
2018-05-27T08:15:50.679Z,30.30
2018-05-27T08:18:19.561Z,30.40
2018-05-27T08:20:49.223Z,30.50
2018-05-27T08:23:18.196Z,30.50
2018-05-27T08:25:47.784Z,30.70
2018-05-27T08:28:18.464Z,31.80
2018-05-27T08:30:48.998Z,31.70
2018-05-27T08:33:18.644Z,31.90
2018-05-27T08:35:50.250Z,31.90
2018-05-27T08:38:19.836Z,31.90
2018-05-27T08:40:49.125Z,32.40
2018-05-27T08:43:20.457Z,32.30
2018-05-27T08:45:53.156Z,32.40
2018-05-27T08:48:22.531Z,33.20
2018-05-27T08:50:51.371Z,32.70
2018-05-27T08:53:20.279Z,33.50
2018-05-27T08:55:51.456Z,32.80
2018-05-27T08:58:20.556Z,32.80
2018-05-27T09:00:49.536Z,32.90
2018-05-27T09:03:18.456Z,34.10
2018-05-27T09:05:48.084Z,34.00
2018-05-27T09:08:16.972Z,34.00
2018-05-27T09:10:46.679Z,34.40
2018-05-27T09:13:15.582Z,34.90
2018-05-27T09:15:44.587Z,34.40
2018-05-27T09:18:17.963Z,34.30
2018-05-27T09:20:47.458Z,34.30
2018-05-27T09:23:16.989Z,33.80
2018-05-27T09:25:47.068Z,33.80
2018-05-27T09:28:17.538Z,34.40
2018-05-27T09:30:46.337Z,34.40
2018-05-27T09:33:15.219Z,34.30
2018-05-27T09:35:44.135Z,34.00
2018-05-27T09:38:12.944Z,33.20
2018-05-27T09:40:41.699Z,32.00
2018-05-27T09:43:11.093Z,30.80
2018-05-27T09:45:40.090Z,31.40
2018-05-27T09:48:08.992Z,32.00
2018-05-27T09:50:40.735Z,33.10
2018-05-27T09:53:11.424Z,34.00
2018-05-27T09:55:40.355Z,33.90
2018-05-27T09:58:10.219Z,33.50
2018-05-27T10:00:43.300Z,33.50
2018-05-27T10:03:13.890Z,33.30
2018-05-27T10:05:43.397Z,33.20
2018-05-27T10:08:12.538Z,32.80
2018-05-27T10:10:41.686Z,33.20
2018-05-27T10:13:14.210Z,33.60
2018-05-27T10:15:44.405Z,33.60
2018-05-27T10:18:13.325Z,32.60
2018-05-27T10:20:42.687Z,32.40
2018-05-27T10:23:13.739Z,32.80
2018-05-27T10:25:42.770Z,33.20
2018-05-27T10:28:23.136Z,33.60
2018-05-27T10:30:53.365Z,33.70
2018-05-27T10:33:30.265Z,34.00
2018-05-27T10:36:04.042Z,34.30
2018-05-27T10:38:33.916Z,33.40
2018-05-27T10:41:04.574Z,31.80
2018-05-27T10:43:36.933Z,30.40
2018-05-27T10:46:06.221Z,29.60
2018-05-27T10:48:36.041Z,29.30
2018-05-27T10:51:05.122Z,30.50
2018-05-27T10:53:41.746Z,30.50
2018-05-27T10:56:10.600Z,30.90
2018-05-27T11:02:08.486Z,29.40
2018-05-27T11:04:40.160Z,30.40
2018-05-27T11:07:10.597Z,30.90
2018-05-27T11:09:39.857Z,31.30
2018-05-27T11:12:11.085Z,32.40
2018-05-27T11:14:44.160Z,32.40
2018-05-27T11:17:14.021Z,32.50
2018-05-27T11:19:52.184Z,33.00
2018-05-27T11:22:25.342Z,32.80
2018-05-27T11:24:54.570Z,32.60
2018-05-27T11:27:23.604Z,32.20
2018-05-27T11:30:15.772Z,32.40
2018-05-27T11:32:45.180Z,32.50
2018-05-27T11:35:17.520Z,31.90
2018-05-27T11:37:47.092Z,31.50
2018-05-27T11:40:16.913Z,31.50
2018-05-27T11:45:25.303Z,32.00
2018-05-27T11:47:54.360Z,32.00
2018-05-27T11:50:25.028Z,32.20
2018-05-27T11:52:55.025Z,31.50
2018-05-27T11:55:30.642Z,31.50
2018-05-27T11:58:00.072Z,31.40
2018-05-27T12:00:31.807Z,31.30
2018-05-27T12:03:00.719Z,31.30
2018-05-27T12:05:32.254Z,32.10
2018-05-27T12:08:01.318Z,32.20
2018-05-27T12:10:30.220Z,32.30
2018-05-27T12:12:59.933Z,30.80
2018-05-27T12:15:28.821Z,30.20
2018-05-27T12:17:58.728Z,29.90
2018-05-27T12:20:27.474Z,29.50
2018-05-27T12:22:57.011Z,29.00
2018-05-27T12:25:28.679Z,27.90
2018-05-27T12:28:01.916Z,27.90
2018-05-27T12:30:38.612Z,27.60
2018-05-27T12:33:08.764Z,26.60
2018-05-27T12:35:37.519Z,26.50
2018-05-27T12:38:06.124Z,26.30
2018-05-27T12:40:35.888Z,26.20
2018-05-27T12:43:04.913Z,26.10
2018-05-27T12:45:34.760Z,26.20
2018-05-27T12:48:03.599Z,26.20
2018-05-27T12:53:25.556Z,25.90
2018-05-27T12:55:54.252Z,25.90
2018-05-27T12:58:23.211Z,25.90
2018-05-27T13:00:52.073Z,25.90
2018-05-27T13:03:20.809Z,25.50
2018-05-27T13:05:49.725Z,25.30
2018-05-27T13:08:19.004Z,25.20
2018-05-27T13:10:48.064Z,24.90
2018-05-27T13:13:17.117Z,24.60
2018-05-27T13:15:46.901Z,24.10
2018-05-27T13:18:15.815Z,24.10
2018-05-27T13:20:44.593Z,23.80
2018-05-27T13:23:13.440Z,23.60
2018-05-27T13:52:19.572Z,22.10
2018-05-27T13:55:08.214Z,22.10
2018-05-27T13:57:40.816Z,21.90
2018-05-27T14:00:15.324Z,21.80
2018-05-27T14:02:48.891Z,21.90
2018-05-27T14:18:22.202Z,21.90
2018-05-27T14:26:27.604Z,21.50
2018-05-27T14:28:56.493Z,21.40
2018-05-27T14:31:25.673Z,21.40
2018-05-27T14:33:55.367Z,21.20
2018-05-27T14:36:33.992Z,21.20
2018-05-27T14:39:04.929Z,21.20
2018-05-27T14:41:34.620Z,21.20
2018-05-27T14:44:07.583Z,21.20
2018-05-27T14:46:43.370Z,21.20
2018-05-27T14:49:12.728Z,21.30
2018-05-27T14:51:42.759Z,21.20
2018-05-27T14:54:12.609Z,21.00
2018-05-27T14:56:42.730Z,21.00
2018-05-27T15:02:53.846Z,20.60
2018-05-27T15:06:08.575Z,20.40
2018-05-27T15:18:40.862Z,19.80
2018-05-27T15:21:43.205Z,19.70
2018-05-27T15:24:13.738Z,19.60
2018-05-27T15:26:42.599Z,19.60
2018-05-27T15:29:11.191Z,19.50
2018-05-27T15:31:40.072Z,19.60
2018-05-27T15:34:10.020Z,19.50
2018-05-27T15:36:38.841Z,19.50
2018-05-27T15:39:07.692Z,19.30
2018-05-27T15:41:36.448Z,19.40
2018-05-27T15:44:05.250Z,19.40
2018-05-27T15:46:35.053Z,19.20
2018-05-27T15:49:04.641Z,19.20
2018-05-27T15:51:33.496Z,19.10
2018-05-27T15:54:02.376Z,18.90
2018-05-27T15:56:31.376Z,18.80
2018-05-27T15:59:00.182Z,18.70
2018-05-27T16:01:29.497Z,18.60
2018-05-27T16:03:59.007Z,18.40
2018-05-27T16:06:33.695Z,18.50
2018-05-27T16:09:02.547Z,18.50
2018-05-27T16:11:31.408Z,18.60
2018-05-27T16:14:00.158Z,18.70
2018-05-27T16:16:28.997Z,18.60
2018-05-27T16:18:59.950Z,18.70
2018-05-27T16:21:30.357Z,18.60
2018-05-27T16:24:02.849Z,18.60
2018-05-27T16:26:34.952Z,18.50
2018-05-27T16:29:08.648Z,18.40
2018-05-27T16:31:42.131Z,18.40
2018-05-27T16:34:13.362Z,18.40
2018-05-27T16:39:22.100Z,18.40
2018-05-27T16:41:57.679Z,18.40
2018-05-27T16:44:33.447Z,18.40
2018-05-27T16:47:03.241Z,18.40
2018-05-27T16:49:51.368Z,18.40
2018-05-27T16:52:20.320Z,18.40
2018-05-27T16:54:49.638Z,18.40
2018-05-27T16:57:18.618Z,18.40
2018-05-27T16:59:48.076Z,18.40
2018-05-27T17:02:17.313Z,18.30
2018-05-27T17:04:46.449Z,18.30
2018-05-27T17:13:30.603Z,18.20
2018-05-27T17:18:42.303Z,18.10
2018-05-27T17:30:42.448Z,17.70
2018-05-27T17:43:05.523Z,17.60
2018-05-27T17:45:34.384Z,17.60
2018-05-27T17:54:46.062Z,17.50
2018-05-27T17:57:15.976Z,17.50
2018-05-27T18:06:28.313Z,17.60
2018-05-27T18:12:31.457Z,17.60
2018-05-27T18:17:48.940Z,17.50
2018-05-27T18:20:19.498Z,17.60
2018-05-27T18:22:55.252Z,17.60
2018-05-27T18:25:25.209Z,17.60
2018-05-27T18:27:54.122Z,17.50
2018-05-27T18:30:23.101Z,17.60
2018-05-27T18:32:51.943Z,17.70
2018-05-27T18:35:20.745Z,17.60
2018-05-27T18:37:50.469Z,17.40
2018-05-27T18:43:26.986Z,17.20
2018-05-27T18:45:58.931Z,17.20
2018-05-27T18:48:31.043Z,17.30
2018-05-27T18:51:15.658Z,17.20
2018-05-27T19:02:31.657Z,17.30
2018-05-27T19:05:03.157Z,17.20
2018-05-27T19:07:35.391Z,17.10
2018-05-27T19:10:04.171Z,17.10
2018-05-27T19:18:08.438Z,17.10
2018-05-27T19:20:38.759Z,17.10
2018-05-27T19:23:08.258Z,17.10
2018-05-27T19:25:37.388Z,17.00
2018-05-27T19:28:06.839Z,17.00
2018-05-27T19:30:36.448Z,17.00
2018-05-27T19:33:05.668Z,17.00
2018-05-27T19:35:34.590Z,17.00
2018-05-27T19:38:04.170Z,17.00
2018-05-27T19:40:33.162Z,16.90
2018-05-27T19:43:02.090Z,16.90
2018-05-27T19:45:31.031Z,17.00
2018-05-27T19:47:59.840Z,17.00
2018-05-27T19:50:28.859Z,17.00
2018-05-27T19:52:57.481Z,17.00
2018-05-27T19:58:48.849Z,17.00
2018-05-27T20:01:17.623Z,17.00
2018-05-27T20:03:46.419Z,17.10
2018-05-27T20:06:15.265Z,17.20
2018-05-27T20:08:44.059Z,17.20
2018-05-27T20:33:35.278Z,17.10
2018-05-27T20:36:04.578Z,17.00
2018-05-27T20:38:33.907Z,17.00
2018-05-27T20:41:02.804Z,17.00
2018-05-27T20:43:31.519Z,16.90
2018-05-27T20:46:01.711Z,16.70
2018-05-27T20:48:48.472Z,16.70
2018-05-27T20:51:17.470Z,16.80
2018-05-27T20:53:47.754Z,16.80
2018-05-27T20:56:16.699Z,16.80
2018-05-27T20:58:45.515Z,16.80
2018-05-27T21:01:14.432Z,16.70
2018-05-27T21:03:43.257Z,16.70
2018-05-27T21:06:12.939Z,16.70
2018-05-27T21:08:43.236Z,16.70
2018-05-27T21:11:12.453Z,16.60
2018-05-27T21:13:41.477Z,16.60
2018-05-27T21:16:10.365Z,16.60
2018-05-27T21:18:41.217Z,16.60
2018-05-27T21:21:10.851Z,16.60
2018-05-27T21:23:39.704Z,16.60
2018-05-27T21:26:09.341Z,16.70
2018-05-27T21:28:41.958Z,16.80
2018-05-27T21:31:11.045Z,16.80
2018-05-27T21:33:40.429Z,16.80
2018-05-27T21:38:44.850Z,16.80
2018-05-27T21:41:14.272Z,16.80
2018-05-27T21:43:43.192Z,16.90
2018-05-27T21:46:12.133Z,16.80
2018-05-27T21:48:41.850Z,16.90
2018-05-27T21:51:11.662Z,16.90
2018-05-27T21:53:40.589Z,16.90
2018-05-27T21:56:09.534Z,16.90
2018-05-27T21:58:38.431Z,16.80
